createdAt,value
2017-08-05T00:00:59.527Z,95302.78
2017-08-05T00:03:27.210Z,95302.64
2017-08-05T00:05:54.855Z,95300.27
2017-08-05T00:08:22.565Z,95306.97
2017-08-05T00:10:50.269Z,95310.44
2017-08-05T00:13:17.955Z,95314.86
2017-08-05T00:15:45.634Z,95317.67
2017-08-05T00:18:13.330Z,95310.56
2017-08-05T00:20:41.005Z,95310.36
2017-08-05T00:23:09.486Z,95314.67
2017-08-05T00:25:37.200Z,95311.02
2017-08-05T00:28:04.842Z,95311.27
2017-08-05T00:30:32.537Z,95315.94
2017-08-05T00:33:00.169Z,95316.96
2017-08-05T00:35:27.785Z,95323.18
2017-08-05T00:37:55.485Z,95321.99
2017-08-05T00:40:23.150Z,95324.94
2017-08-05T00:42:50.785Z,95321.03
2017-08-05T00:45:18.464Z,95315.63
2017-08-05T00:47:46.083Z,95318.23
2017-08-05T00:50:13.709Z,95316.19
2017-08-05T00:52:41.372Z,95310.20
2017-08-05T00:55:08.989Z,95309.80
2017-08-05T00:57:36.705Z,95314.54
2017-08-05T01:00:06.818Z,95315.70
2017-08-05T01:02:34.430Z,95307.52
2017-08-05T01:05:02.116Z,95314.02
2017-08-05T01:07:29.806Z,95314.06
2017-08-05T01:09:58.216Z,95316.19
2017-08-05T01:12:25.904Z,95319.63
2017-08-05T01:14:53.551Z,95314.22
2017-08-05T01:17:21.184Z,95318.75
2017-08-05T01:19:48.809Z,95311.58
2017-08-05T01:22:17.282Z,95310.29
2017-08-05T01:24:44.946Z,95302.86
2017-08-05T01:27:13.436Z,95303.95
2017-08-05T01:29:41.108Z,95316.33
2017-08-05T01:32:09.036Z,95305.17
2017-08-05T01:34:36.664Z,95311.17
2017-08-05T01:37:05.309Z,95311.71
2017-08-05T01:39:33.679Z,95316.09
2017-08-05T01:42:30.874Z,95313.08
2017-08-05T01:44:58.630Z,95308.34
2017-08-05T01:47:26.370Z,95312.09
2017-08-05T01:49:54.133Z,95309.41
2017-08-05T01:52:21.880Z,95308.48
2017-08-05T01:54:49.511Z,95311.59
2017-08-05T01:57:17.239Z,95307.42
2017-08-05T01:59:44.920Z,95308.93
2017-08-05T02:02:12.658Z,95312.14
2017-08-05T02:04:40.302Z,95313.06
2017-08-05T02:07:07.974Z,95313.21
2017-08-05T02:09:35.721Z,95313.73
2017-08-05T02:12:03.365Z,95316.88
2017-08-05T02:14:31.069Z,95322.09
2017-08-05T02:16:58.761Z,95325.83
2017-08-05T02:19:26.445Z,95326.72
2017-08-05T02:21:54.092Z,95324.20
2017-08-05T02:24:21.772Z,95319.44
2017-08-05T02:26:49.477Z,95326.03
2017-08-05T02:29:17.141Z,95332.65
2017-08-05T02:31:44.829Z,95330.83
2017-08-05T02:34:12.533Z,95328.78
2017-08-05T02:36:40.307Z,95331.86
2017-08-05T02:39:07.964Z,95326.30
2017-08-05T02:41:35.610Z,95328.72
2017-08-05T02:44:03.256Z,95330.53
2017-08-05T02:46:30.939Z,95326.20
2017-08-05T02:48:58.674Z,95329.81
2017-08-05T02:51:26.358Z,95324.89
2017-08-05T02:53:54.086Z,95331.35
2017-08-05T02:56:22.304Z,95329.77
2017-08-05T02:58:50.114Z,95328.67
2017-08-05T03:01:17.803Z,95337.45
2017-08-05T03:03:45.432Z,95331.98
2017-08-05T03:06:13.083Z,95333.45
2017-08-05T03:08:40.810Z,95330.09
2017-08-05T03:11:08.481Z,95334.82
2017-08-05T03:13:36.193Z,95341.70
2017-08-05T03:16:03.969Z,95341.56
2017-08-05T03:18:31.610Z,95344.10
2017-08-05T03:20:59.265Z,95347.14
2017-08-05T03:23:26.941Z,95343.56
2017-08-05T03:25:54.607Z,95344.31
2017-08-05T03:28:22.253Z,95341.58
2017-08-05T03:30:49.928Z,95349.42
2017-08-05T03:33:17.561Z,95354.07
2017-08-05T03:35:45.290Z,95342.53
2017-08-05T03:38:12.983Z,95348.68
2017-08-05T03:40:40.660Z,95349.94
2017-08-05T03:43:08.328Z,95343.59
2017-08-05T03:45:35.972Z,95350.92
2017-08-05T03:48:04.314Z,95347.78
2017-08-05T03:50:32.006Z,95341.52
2017-08-05T03:52:59.698Z,95334.50
2017-08-05T03:55:27.360Z,95333.72
2017-08-05T03:57:54.970Z,95348.66
2017-08-05T04:00:22.639Z,95346.34
2017-08-05T04:02:50.385Z,95349.17
2017-08-05T04:05:18.885Z,95357.84
2017-08-05T04:07:46.574Z,95352.31
2017-08-05T04:10:15.095Z,95354.59
2017-08-05T04:12:42.749Z,95350.45
2017-08-05T04:15:10.580Z,95349.09
2017-08-05T04:17:38.299Z,95358.14
2017-08-05T04:20:06.029Z,95357.52
2017-08-05T04:22:33.625Z,95355.82
2017-08-05T04:25:01.296Z,95356.33
2017-08-05T04:27:29.406Z,95357.92
2017-08-05T04:29:57.897Z,95355.66
2017-08-05T04:32:27.275Z,95358.27
2017-08-05T04:34:57.077Z,95363.27
2017-08-05T04:37:31.208Z,95361.12
2017-08-05T04:39:59.206Z,95359.09
2017-08-05T04:42:27.375Z,95366.66
2017-08-05T04:44:56.317Z,95363.24
2017-08-05T04:47:25.952Z,95363.08
2017-08-05T04:49:55.248Z,95361.41
2017-08-05T04:52:24.491Z,95360.28
2017-08-05T04:54:52.388Z,95369.20
2017-08-05T04:57:21.289Z,95359.04
2017-08-05T04:59:49.402Z,95366.28
2017-08-05T05:02:17.733Z,95368.55
2017-08-05T05:04:46.193Z,95364.73
2017-08-05T05:07:14.316Z,95378.80
2017-08-05T05:09:43.279Z,95376.92
2017-08-05T05:12:10.973Z,95376.03
2017-08-05T05:14:38.783Z,95381.09
2017-08-05T05:17:06.374Z,95384.11
2017-08-05T05:19:34.046Z,95385.36
2017-08-05T05:22:02.321Z,95388.53
2017-08-05T05:24:30.829Z,95386.52
2017-08-05T05:26:58.645Z,95385.47
2017-08-05T05:29:26.552Z,95386.92
2017-08-05T05:31:55.071Z,95385.81
2017-08-05T05:34:22.703Z,95383.16
2017-08-05T05:36:50.283Z,95390.89
2017-08-05T05:39:17.925Z,95387.97
2017-08-05T05:41:45.701Z,95390.30
2017-08-05T05:44:13.531Z,95385.82
2017-08-05T05:46:41.168Z,95390.46
2017-08-05T05:49:08.871Z,95394.75
2017-08-05T05:51:36.411Z,95394.56
2017-08-05T05:54:04.031Z,95401.50
2017-08-05T05:56:31.589Z,95402.79
2017-08-05T05:58:59.150Z,95396.87
2017-08-05T06:01:26.799Z,95401.08
2017-08-05T06:03:54.419Z,95403.28
2017-08-05T06:06:22.080Z,95401.24
2017-08-05T06:08:49.695Z,95391.66
2017-08-05T06:11:17.278Z,95397.30
2017-08-05T06:13:44.883Z,95393.30
2017-08-05T06:16:12.473Z,95391.63
2017-08-05T06:18:40.988Z,95406.46
2017-08-05T06:21:08.773Z,95399.53
2017-08-05T06:23:36.390Z,95400.46
2017-08-05T06:26:03.951Z,95402.97
2017-08-05T06:28:31.791Z,95406.98
2017-08-05T06:30:59.454Z,95403.19
2017-08-05T06:33:27.087Z,95404.95
2017-08-05T06:35:55.563Z,95402.09
2017-08-05T06:38:23.227Z,95400.77
2017-08-05T06:40:50.801Z,95404.19
2017-08-05T06:43:18.378Z,95400.17
2017-08-05T06:45:46.099Z,95392.83
2017-08-05T06:48:13.897Z,95394.88
2017-08-05T06:50:41.705Z,95395.14
2017-08-05T06:53:09.303Z,95391.73
2017-08-05T06:55:36.891Z,95398.16
2017-08-05T06:58:04.657Z,95385.69
2017-08-05T07:00:32.357Z,95392.64
2017-08-05T07:02:59.945Z,95392.95
2017-08-05T07:05:27.706Z,95390.84
2017-08-05T07:07:55.299Z,95390.86
2017-08-05T07:10:23.718Z,95395.83
2017-08-05T07:12:51.351Z,95392.18
2017-08-05T07:15:19.015Z,95396.23
2017-08-05T07:17:46.642Z,95388.90
2017-08-05T07:20:14.227Z,95388.98
2017-08-05T07:22:41.957Z,95388.14
2017-08-05T07:25:09.807Z,95382.84
2017-08-05T07:27:38.043Z,95388.98
2017-08-05T07:30:07.110Z,95384.59
2017-08-05T07:32:34.772Z,95386.73
2017-08-05T07:35:02.395Z,95378.27
2017-08-05T07:37:30.097Z,95377.73
2017-08-05T07:39:57.742Z,95322.75
2017-08-05T07:42:26.266Z,95378.75
2017-08-05T07:44:53.962Z,95381.41
2017-08-05T07:47:21.646Z,95379.09
2017-08-05T07:49:49.298Z,95381.48
2017-08-05T07:52:16.965Z,95379.95
2017-08-05T07:54:44.652Z,95377.02
2017-08-05T07:57:12.255Z,95384.45
2017-08-05T07:59:39.981Z,95380.63
2017-08-05T08:02:07.724Z,95380.60
2017-08-05T08:04:36.549Z,95379.09
2017-08-05T08:07:04.184Z,95376.09
2017-08-05T08:09:31.845Z,95376.78
2017-08-05T08:11:59.433Z,95371.89
2017-08-05T08:14:27.122Z,95370.87
2017-08-05T08:16:55.028Z,95379.35
2017-08-05T08:19:22.837Z,95376.86
2017-08-05T08:21:50.948Z,95371.70
2017-08-05T08:24:18.582Z,95378.86
2017-08-05T08:26:46.199Z,95373.43
2017-08-05T08:29:34.708Z,95374.30
2017-08-05T08:34:48.034Z,95374.41
2017-08-05T08:37:16.143Z,95372.95
2017-08-05T08:39:46.717Z,95369.52
2017-08-05T08:42:14.460Z,95374.74
2017-08-05T08:44:42.093Z,95369.20
2017-08-05T08:47:09.763Z,95370.94
2017-08-05T08:49:37.441Z,95366.45
2017-08-05T08:52:07.711Z,95356.18
2017-08-05T08:54:36.604Z,95359.11
2017-08-05T08:57:04.299Z,95354.59
2017-08-05T08:59:32.640Z,95360.83
2017-08-05T09:02:02.111Z,95347.52
2017-08-05T09:04:29.780Z,95344.03
2017-08-05T09:06:58.641Z,95340.76
2017-08-05T09:09:26.407Z,95337.84
2017-08-05T09:11:54.017Z,95333.14
2017-08-05T09:14:25.549Z,95331.38
2017-08-05T09:16:53.298Z,95324.48
2017-08-05T09:19:20.880Z,95323.96
2017-08-05T09:21:51.837Z,95327.10
2017-08-05T09:24:19.507Z,95318.70
2017-08-05T09:30:17.216Z,95310.61
2017-08-05T09:33:02.001Z,95318.94
2017-08-05T09:35:33.712Z,95322.67
2017-08-05T09:38:05.167Z,95310.66
2017-08-05T09:43:29.620Z,95301.88
2017-08-05T09:46:04.753Z,95291.89
2017-08-05T09:48:53.673Z,95285.31
2017-08-05T09:51:21.531Z,95297.69
2017-08-05T09:53:56.601Z,95301.05
2017-08-05T09:56:29.165Z,95295.52
2017-08-05T09:59:02.049Z,95290.91
2017-08-05T10:01:37.476Z,95291.84
2017-08-05T10:07:15.916Z,95284.13
2017-08-05T10:09:54.906Z,95274.77
2017-08-05T10:12:31.355Z,95289.06
2017-08-05T10:15:08.136Z,95283.75
2017-08-05T10:17:39.507Z,95275.25
2017-08-05T10:20:17.370Z,95265.03
2017-08-05T10:22:58.351Z,95282.59
2017-08-05T10:25:27.233Z,95270.21
2017-08-05T10:27:55.932Z,95267.10
2017-08-05T10:30:23.986Z,95273.40
2017-08-05T10:32:52.065Z,95249.77
2017-08-05T10:35:26.260Z,95259.03
2017-08-05T10:37:56.051Z,95275.87
2017-08-05T10:40:24.154Z,95266.77
2017-08-05T10:42:52.851Z,95252.86
2017-08-05T10:45:21.234Z,95248.55
2017-08-05T10:47:50.555Z,95262.08
2017-08-05T10:50:18.894Z,95263.47
2017-08-05T10:52:47.720Z,95244.17
2017-08-05T10:55:17.208Z,95240.80
2017-08-05T11:00:22.951Z,95250.09
2017-08-05T11:02:54.785Z,95242.59
2017-08-05T11:05:22.465Z,95239.10
2017-08-05T11:07:50.167Z,95235.97
2017-08-05T11:10:17.882Z,95235.61
2017-08-05T11:12:45.600Z,95224.36
2017-08-05T11:15:15.446Z,95217.70
2017-08-05T11:17:50.191Z,95217.73
2017-08-05T11:20:33.412Z,95221.73
2017-08-05T11:23:03.866Z,95221.09
2017-08-05T11:25:31.530Z,95216.42
2017-08-05T11:27:59.413Z,95224.53
2017-08-05T11:30:28.219Z,95220.11
2017-08-05T11:32:56.884Z,95210.23
2017-08-05T11:35:24.545Z,95200.44
2017-08-05T11:37:54.278Z,95203.74
2017-08-05T11:40:22.044Z,95199.66
2017-08-05T11:42:49.840Z,95204.16
2017-08-05T11:45:18.431Z,95201.31
2017-08-05T11:47:46.137Z,95193.00
2017-08-05T11:50:13.950Z,95186.49
2017-08-05T11:52:41.560Z,95195.07
2017-08-05T11:55:09.243Z,95188.12
2017-08-05T11:57:36.844Z,95189.36
2017-08-05T12:00:08.622Z,95185.13
2017-08-05T12:02:36.318Z,95188.14
2017-08-05T12:05:05.578Z,95183.64
2017-08-05T12:07:33.492Z,95172.26
2017-08-05T12:10:01.841Z,95175.69
2017-08-05T12:12:29.545Z,95169.83
2017-08-05T12:14:57.304Z,95164.99
2017-08-05T12:17:29.123Z,95171.98
2017-08-05T12:19:56.883Z,95164.53
2017-08-05T12:22:25.288Z,95165.21
2017-08-05T12:24:52.899Z,95165.86
2017-08-05T12:27:20.604Z,95168.53
2017-08-05T12:29:48.506Z,95161.40
2017-08-05T12:32:16.972Z,95162.40
2017-08-05T12:34:44.896Z,95165.59
2017-08-05T12:37:12.500Z,95163.36
2017-08-05T12:39:42.812Z,95157.58
2017-08-05T12:42:10.384Z,95156.52
2017-08-05T12:44:40.895Z,95153.19
2017-08-05T12:47:08.572Z,95156.77
2017-08-05T12:49:36.219Z,95144.09
2017-08-05T12:52:04.944Z,95137.94
2017-08-05T12:54:32.669Z,95138.55
2017-08-05T12:57:02.080Z,95140.02
2017-08-05T12:59:35.485Z,95137.19
2017-08-05T13:05:30.799Z,95135.73
2017-08-05T13:07:59.452Z,95133.26
2017-08-05T13:10:27.138Z,95131.52
2017-08-05T13:12:54.840Z,95127.33
2017-08-05T13:15:22.688Z,95129.09
2017-08-05T13:18:00.663Z,95132.94
2017-08-05T13:20:36.445Z,95133.84
2017-08-05T13:23:04.907Z,95133.73
2017-08-05T13:25:32.481Z,95127.06
2017-08-05T13:28:00.555Z,95124.50
2017-08-05T13:30:28.200Z,95128.20
2017-08-05T13:32:56.853Z,95128.98
2017-08-05T13:35:24.457Z,95124.32
2017-08-05T13:37:52.025Z,95121.75
2017-08-05T13:40:19.613Z,95132.77
2017-08-05T13:42:47.628Z,95112.56
2017-08-05T13:45:15.209Z,95122.55
2017-08-05T13:47:42.770Z,95118.73
2017-08-05T13:50:10.324Z,95116.19
2017-08-05T13:52:38.777Z,95115.16
2017-08-05T13:55:07.451Z,95119.25
2017-08-05T13:57:36.075Z,95119.77
2017-08-05T14:00:06.208Z,95119.50
2017-08-05T14:02:33.913Z,95114.02
2017-08-05T14:05:01.561Z,95120.91
2017-08-05T14:07:29.767Z,95113.70
2017-08-05T14:10:04.349Z,95116.52
2017-08-05T14:12:32.566Z,95121.53
2017-08-05T14:15:00.157Z,95119.33
2017-08-05T14:17:27.816Z,95119.42
2017-08-05T14:20:00.132Z,95115.14
2017-08-05T14:22:28.719Z,95121.11
2017-08-05T14:24:56.716Z,95121.15
2017-08-05T14:27:24.305Z,95115.30
2017-08-05T14:29:51.910Z,95115.92
2017-08-05T14:32:19.498Z,95104.64
2017-08-05T14:34:47.075Z,95117.70
2017-08-05T14:37:14.688Z,95116.19
2017-08-05T14:39:43.134Z,95118.28
2017-08-05T14:42:10.666Z,95122.61
2017-08-05T14:44:38.658Z,95113.64
2017-08-05T14:47:06.242Z,95119.41
2017-08-05T14:49:34.084Z,95118.50
2017-08-05T14:52:02.905Z,95123.63
2017-08-05T14:54:30.490Z,95121.46
2017-08-05T14:56:58.340Z,95112.80
2017-08-05T15:02:58.753Z,95118.28
2017-08-05T15:05:30.743Z,95129.25
2017-08-05T15:08:05.654Z,95121.48
2017-08-05T15:10:34.824Z,95127.25
2017-08-05T15:13:04.016Z,95119.02
2017-08-05T15:18:11.644Z,95113.58
2017-08-05T15:20:43.071Z,95115.37
2017-08-05T15:23:21.051Z,95112.77
2017-08-05T15:25:48.683Z,95118.87
2017-08-05T15:30:56.032Z,95122.55
2017-08-05T15:33:26.206Z,95115.75
2017-08-05T15:35:58.062Z,95108.88
2017-08-05T15:38:30.927Z,95114.78
2017-08-05T15:41:04.022Z,95117.08
2017-08-05T15:43:34.011Z,95119.62
2017-08-05T15:46:04.473Z,95123.71
2017-08-05T15:48:36.349Z,95118.52
2017-08-05T15:51:09.111Z,95123.30
2017-08-05T15:53:41.095Z,95123.42
2017-08-05T15:56:28.427Z,95117.96
2017-08-05T15:59:03.016Z,95118.34
2017-08-05T16:01:32.891Z,95123.84
2017-08-05T16:04:00.892Z,95124.50
2017-08-05T16:06:32.973Z,95130.83
2017-08-05T16:09:05.316Z,95127.69
2017-08-05T16:11:37.418Z,95127.20
2017-08-05T16:14:09.379Z,95131.64
2017-08-05T16:16:38.738Z,95127.65
2017-08-05T16:21:53.273Z,95126.16
2017-08-05T16:24:24.492Z,95133.02
2017-08-05T16:29:30.461Z,95134.50
2017-08-05T16:32:01.555Z,95136.67
2017-08-05T16:34:32.677Z,95135.45
2017-08-05T16:37:01.452Z,95142.65
2017-08-05T16:39:30.162Z,95145.69
2017-08-05T16:42:01.449Z,95148.36
2017-08-05T16:44:31.499Z,95142.93
2017-08-05T16:47:00.171Z,95142.02
2017-08-05T16:49:30.112Z,95154.37
2017-08-05T16:51:59.265Z,95152.67
2017-08-05T16:54:27.637Z,95156.16
2017-08-05T16:56:57.025Z,95156.44
2017-08-05T16:59:26.561Z,95158.30
2017-08-05T17:01:58.703Z,95158.52
2017-08-05T17:04:27.696Z,95160.20
2017-08-05T17:06:55.391Z,95159.92
2017-08-05T17:09:26.136Z,95163.48
2017-08-05T17:11:55.084Z,95178.20
2017-08-05T17:14:24.313Z,95175.02
2017-08-05T17:16:56.687Z,95181.05
2017-08-05T17:19:26.687Z,95180.23
2017-08-05T17:21:56.699Z,95179.92
2017-08-05T17:24:29.715Z,95184.66
2017-08-05T17:26:59.991Z,95191.80
2017-08-05T17:29:29.167Z,95185.74
2017-08-05T17:31:57.920Z,95185.73
2017-08-05T17:34:28.199Z,95190.28
2017-08-05T17:36:56.706Z,95188.33
2017-08-05T17:39:25.121Z,95189.44
2017-08-05T17:42:03.623Z,95198.35
2017-08-05T17:44:33.088Z,95197.70
2017-08-05T17:47:01.902Z,95197.38
2017-08-05T17:49:30.448Z,95205.23
2017-08-05T17:52:00.521Z,95209.48
2017-08-05T17:54:28.544Z,95205.61
2017-08-05T17:56:56.409Z,95206.62
2017-08-05T17:59:25.938Z,95213.17
2017-08-05T18:01:53.810Z,95202.13
2017-08-05T18:04:21.475Z,95213.05
2017-08-05T18:06:49.061Z,95213.80
2017-08-05T18:09:16.683Z,95211.63
2017-08-05T18:11:44.269Z,95218.00
2017-08-05T18:14:11.803Z,95215.38
2017-08-05T18:16:39.415Z,95225.72
2017-08-05T18:19:07.115Z,95220.03
2017-08-05T18:21:34.665Z,95222.61
2017-08-05T18:24:02.298Z,95217.47
2017-08-05T18:26:29.932Z,95232.22
2017-08-05T18:28:57.675Z,95230.56
2017-08-05T18:31:25.371Z,95235.63
2017-08-05T18:33:53.392Z,95234.91
2017-08-05T18:36:21.076Z,95234.38
2017-08-05T18:38:49.161Z,95231.84
2017-08-05T18:41:17.346Z,95237.13
2017-08-05T18:43:45.089Z,95238.93
2017-08-05T18:46:13.453Z,95235.73
2017-08-05T18:48:41.035Z,95235.77
2017-08-05T18:51:08.598Z,95240.55
2017-08-05T18:53:36.181Z,95247.30
2017-08-05T18:56:03.715Z,95243.58
2017-08-05T18:58:31.579Z,95246.15
2017-08-05T19:00:59.167Z,95241.62
2017-08-05T19:03:26.785Z,95246.98
2017-08-05T19:05:54.554Z,95245.28
2017-08-05T19:08:22.332Z,95246.53
2017-08-05T19:10:49.870Z,95247.70
2017-08-05T19:16:38.670Z,95242.59
2017-08-05T19:19:06.416Z,95236.09
2017-08-05T19:21:34.290Z,95240.34
2017-08-05T19:24:02.047Z,95240.26
2017-08-05T19:26:29.614Z,95236.39
2017-08-05T19:28:57.373Z,95239.75
2017-08-05T19:31:24.951Z,95240.73
2017-08-05T19:33:52.536Z,95239.48
2017-08-05T19:36:20.077Z,95252.19
2017-08-05T19:38:47.702Z,95242.04
2017-08-05T19:41:15.286Z,95248.17
2017-08-05T19:43:42.811Z,95253.52
2017-08-05T19:46:10.430Z,95255.67
2017-08-05T19:48:37.999Z,95250.01
2017-08-05T19:51:05.651Z,95254.80
2017-08-05T19:53:33.294Z,95255.19
2017-08-05T19:56:00.844Z,95257.59
2017-08-05T19:58:29.293Z,95251.94
2017-08-05T20:00:58.175Z,95253.02
2017-08-05T20:03:25.950Z,95259.84
2017-08-05T20:05:53.804Z,95252.83
2017-08-05T20:08:23.793Z,95260.19
2017-08-05T20:10:52.172Z,95258.19
2017-08-05T20:13:19.958Z,95257.63
2017-08-05T20:15:47.883Z,95259.17
2017-08-05T20:18:15.529Z,95262.19
2017-08-05T20:20:44.791Z,95258.01
2017-08-05T20:23:13.834Z,95257.22
2017-08-05T20:25:43.049Z,95262.27
2017-08-05T20:28:12.767Z,95263.42
2017-08-05T20:30:40.505Z,95259.67
2017-08-05T20:33:08.551Z,95260.84
2017-08-05T20:35:36.607Z,95270.34
2017-08-05T20:38:04.600Z,95271.03
2017-08-05T20:40:32.608Z,95271.33
2017-08-05T20:43:00.822Z,95274.11
2017-08-05T20:45:28.610Z,95273.03
2017-08-05T20:47:56.387Z,95275.56
2017-08-05T20:50:24.103Z,95282.00
2017-08-05T20:53:16.430Z,95275.50
2017-08-05T20:55:44.305Z,95277.59
2017-08-05T20:58:12.015Z,95281.97
2017-08-05T21:00:39.707Z,95283.16
2017-08-05T21:03:07.434Z,95290.69
2017-08-05T21:05:35.137Z,95287.88
2017-08-05T21:08:02.860Z,95283.69
2017-08-05T21:10:30.893Z,95286.10
2017-08-05T21:12:58.601Z,95284.22
2017-08-05T21:15:26.345Z,95289.47
2017-08-05T21:17:54.020Z,95286.00
2017-08-05T21:20:21.707Z,95289.86
2017-08-05T21:22:49.587Z,95292.63
2017-08-05T21:25:17.285Z,95298.69
2017-08-05T21:27:44.953Z,95296.91
2017-08-05T21:30:13.158Z,95296.91
2017-08-05T21:32:41.961Z,95296.69
2017-08-05T21:35:23.883Z,95291.59
2017-08-05T21:37:55.374Z,95302.48
2017-08-05T21:40:23.239Z,95303.87
2017-08-05T21:42:51.145Z,95301.30
2017-08-05T21:45:19.280Z,95303.80
2017-08-05T21:47:47.123Z,95307.51
2017-08-05T21:50:15.183Z,95309.03
2017-08-05T21:52:43.536Z,95301.91
2017-08-05T21:55:11.493Z,95306.33
2017-08-05T21:57:40.249Z,95297.41
2017-08-05T22:00:08.353Z,95304.20
2017-08-05T22:02:36.109Z,95306.77
2017-08-05T22:05:04.090Z,95306.25
2017-08-05T22:07:38.255Z,95310.80
2017-08-05T22:10:05.993Z,95306.67
2017-08-05T22:12:34.212Z,95310.23
2017-08-05T22:15:02.565Z,95307.73
2017-08-05T22:17:31.073Z,95311.37
2017-08-05T22:19:58.736Z,95316.83
2017-08-05T22:22:26.728Z,95311.81
2017-08-05T22:24:54.589Z,95308.10
2017-08-05T22:27:22.496Z,95308.58
2017-08-05T22:29:50.399Z,95306.70
2017-08-05T22:32:18.580Z,95303.48
2017-08-05T22:34:46.446Z,95301.71
2017-08-05T22:37:13.986Z,95301.78
2017-08-05T22:39:41.578Z,95298.55
2017-08-05T22:42:09.194Z,95299.59
2017-08-05T22:44:36.774Z,95301.28
2017-08-05T22:47:04.360Z,95300.61
2017-08-05T22:49:31.946Z,95302.07
2017-08-05T22:52:00.316Z,95302.16
2017-08-05T22:54:28.582Z,95306.98
2017-08-05T22:56:56.474Z,95306.70
2017-08-05T22:59:24.445Z,95299.77
2017-08-05T23:01:52.391Z,95303.56
2017-08-05T23:04:20.714Z,95300.92
2017-08-05T23:06:48.852Z,95297.50
2017-08-05T23:09:16.878Z,95303.32
2017-08-05T23:11:44.816Z,95301.73
2017-08-05T23:14:18.522Z,95303.22
2017-08-05T23:16:51.854Z,95300.77
2017-08-05T23:19:20.388Z,95310.80
2017-08-05T23:21:48.708Z,95310.14
2017-08-05T23:24:16.754Z,95307.92
2017-08-05T23:26:44.814Z,95308.86
2017-08-05T23:29:14.713Z,95308.16
2017-08-05T23:31:42.648Z,95302.75
2017-08-05T23:34:35.409Z,95307.85
2017-08-05T23:37:03.951Z,95303.53
2017-08-05T23:39:32.139Z,95311.18
2017-08-05T23:42:00.409Z,95310.14
2017-08-05T23:44:29.248Z,95299.66
2017-08-05T23:46:57.760Z,95304.53
2017-08-05T23:49:25.862Z,95306.53
2017-08-05T23:51:54.126Z,95304.86
2017-08-05T23:54:22.718Z,95305.67
2017-08-05T23:56:50.917Z,95303.84
2017-08-05T23:59:22.843Z,95303.67
